Time;durP1;ratioP1;P1;durP2;ratioP2;P2;SDS_P1;SDS_P2;PMS_P1;PMS_P2;Temp;Humidity;BMP_temperature;BMP_pressure;BME280_temperature;BME280_humidity;BME280_pressure;Samples;Min_cycle;Max_cycle;Signal;HPM_P1;HPM_P2
2023/09/02 00:00:49;;;;;;;8.07;3.20;;;17.10;99.90;;;;;;5058118;28;20048;-47
2023/09/02 00:03:16;;;;;;;5.10;2.95;;;17.10;99.90;;;;;;5056769;28;20056;-42
2023/09/02 00:05:44;;;;;;;8.07;3.50;;;17.00;99.90;;;;;;5054477;28;20156;-44
2023/09/02 00:08:12;;;;;;;8.85;3.80;;;17.00;99.90;;;;;;5043266;28;20056;-41
2023/09/02 00:10:39;;;;;;;7.80;4.00;;;17.00;99.90;;;;;;5052022;28;20114;-44
2023/09/02 00:13:06;;;;;;;6.78;3.72;;;17.00;99.90;;;;;;5049634;28;20124;-42
2023/09/02 00:15:33;;;;;;;5.30;3.60;;;16.90;99.90;;;;;;5048804;28;20171;-39
2023/09/02 00:18:01;;;;;;;7.97;3.78;;;16.90;99.90;;;;;;5050866;28;20129;-46
2023/09/02 00:20:28;;;;;;;6.50;3.75;;;16.90;99.90;;;;;;5049639;28;20053;-46
2023/09/02 00:22:56;;;;;;;8.15;3.55;;;16.80;99.90;;;;;;5054301;28;20037;-44
2023/09/02 00:25:24;;;;;;;6.22;3.38;;;16.90;99.90;;;;;;5048917;28;20052;-40
2023/09/02 00:27:52;;;;;;;8.40;3.78;;;16.90;99.90;;;;;;5059256;28;20037;-40
2023/09/02 00:30:21;;;;;;;6.57;3.33;;;16.80;99.90;;;;;;5053330;28;20068;-41
2023/09/02 00:32:48;;;;;;;5.55;3.72;;;16.80;99.90;;;;;;5058087;28;20044;-39
2023/09/02 00:35:15;;;;;;;7.63;3.72;;;16.70;99.90;;;;;;5058700;28;20057;-38
2023/09/02 00:37:43;;;;;;;8.88;3.25;;;16.70;99.90;;;;;;5052056;28;20044;-43
2023/09/02 00:40:14;;;;;;;5.63;3.00;;;16.60;99.90;;;;;;5051557;28;20052;-43
2023/09/02 00:42:43;;;;;;;7.80;3.80;;;16.60;99.90;;;;;;5052409;28;20052;-41
2023/09/02 00:45:10;;;;;;;6.70;3.50;;;16.60;99.90;;;;;;5053805;28;20112;-40
2023/09/02 00:47:38;;;;;;;9.10;3.10;;;16.60;99.90;;;;;;5054819;28;20052;-43
2023/09/02 00:50:06;;;;;;;7.85;3.05;;;16.50;99.90;;;;;;5049301;28;20045;-40
2023/09/02 00:52:34;;;;;;;5.88;3.08;;;16.50;99.90;;;;;;5056502;28;20459;-40
2023/09/02 00:55:03;;;;;;;6.30;3.42;;;16.50;99.90;;;;;;5052744;28;20046;-42
2023/09/02 00:57:30;;;;;;;5.50;2.70;;;16.50;99.90;;;;;;5057223;28;20060;-43
2023/09/02 00:59:59;;;;;;;5.35;3.20;;;16.40;99.90;;;;;;5055940;28;20440;-43
2023/09/02 01:02:27;;;;;;;8.73;3.40;;;16.40;99.90;;;;;;5053389;28;20056;-43
2023/09/02 01:04:57;;;;;;;5.78;2.92;;;16.40;99.90;;;;;;5051408;28;20167;-39
2023/09/02 01:07:26;;;;;;;7.00;2.72;;;16.40;99.90;;;;;;5050219;28;20044;-40
2023/09/02 01:09:55;;;;;;;6.47;2.90;;;16.40;99.90;;;;;;5055505;28;20049;-40
2023/09/02 01:12:23;;;;;;;6.30;2.95;;;16.30;99.90;;;;;;5048775;28;20540;-42
2023/09/02 01:14:51;;;;;;;8.52;2.65;;;16.30;99.90;;;;;;5049211;28;20056;-42
2023/09/02 01:17:18;;;;;;;6.05;2.70;;;16.20;99.90;;;;;;5051652;28;20052;-42
2023/09/02 01:19:49;;;;;;;6.43;2.70;;;16.20;99.90;;;;;;5052008;28;20052;-40
2023/09/02 01:22:44;;;;;;;5.00;2.60;;;16.20;99.90;;;;;;5051055;28;20505;-39
2023/09/02 01:25:30;;;;;;;6.70;2.85;;;16.20;99.90;;;;;;5049589;28;20103;-41
2023/09/02 01:28:10;;;;;;;6.40;3.00;;;16.10;99.90;;;;;;5048354;28;20092;-40
2023/09/02 01:30:41;;;;;;;7.40;2.88;;;16.10;99.90;;;;;;5054253;28;20082;-45
2023/09/02 01:33:09;;;;;;;4.70;2.65;;;16.10;99.90;;;;;;5051061;28;20044;-40
2023/09/02 01:35:37;;;;;;;4.80;2.88;;;16.00;99.90;;;;;;5055777;28;20044;-43
2023/09/02 01:38:07;;;;;;;6.47;2.97;;;16.00;99.90;;;;;;5051109;28;20051;-42
2023/09/02 01:40:35;;;;;;;6.20;3.00;;;16.00;99.90;;;;;;5048649;28;21594;-43
2023/09/02 01:43:04;;;;;;;6.07;2.97;;;15.90;99.90;;;;;;5050667;28;20053;-42
2023/09/02 01:45:34;;;;;;;6.15;2.83;;;15.90;99.90;;;;;;5051291;28;20053;-42
2023/09/02 01:48:03;;;;;;;4.90;2.50;;;15.80;99.90;;;;;;5051175;28;21362;-40
2023/09/02 01:50:33;;;;;;;6.53;2.80;;;15.80;99.90;;;;;;5050495;28;20044;-42
2023/09/02 01:53:02;;;;;;;5.25;2.90;;;15.70;99.90;;;;;;5054269;28;20071;-40
2023/09/02 01:55:31;;;;;;;5.07;2.70;;;15.70;99.90;;;;;;5059739;28;20053;-40
2023/09/02 01:58:00;;;;;;;5.93;2.88;;;15.70;99.90;;;;;;5053117;28;20395;-45
2023/09/02 02:00:28;;;;;;;5.18;2.90;;;15.60;99.90;;;;;;5058216;28;20049;-42
2023/09/02 02:02:56;;;;;;;5.82;2.90;;;15.60;99.90;;;;;;5052207;28;20060;-40
2023/09/02 02:05:36;;;;;;;7.43;3.40;;;15.60;99.90;;;;;;5052731;28;20059;-42
2023/09/02 02:08:11;;;;;;;8.30;3.20;;;15.60;99.90;;;;;;5055515;28;20037;-40
2023/09/02 02:10:40;;;;;;;8.63;2.78;;;15.60;99.90;;;;;;5056205;28;20048;-42
2023/09/02 02:13:07;;;;;;;8.27;2.92;;;15.60;99.90;;;;;;5059048;28;20045;-42
2023/09/02 02:15:35;;;;;;;5.70;3.00;;;15.50;99.90;;;;;;5061215;28;20158;-39
2023/09/02 02:18:03;;;;;;;4.28;2.70;;;15.50;99.90;;;;;;5061619;28;20129;-42
2023/09/02 02:20:44;;;;;;;6.18;3.03;;;15.50;99.90;;;;;;5058381;28;20044;-41
2023/09/02 02:23:11;;;;;;;7.22;2.33;;;15.60;99.90;;;;;;5055718;28;20080;-42
2023/09/02 02:25:40;;;;;;;7.15;2.92;;;15.50;99.90;;;;;;5057342;28;20082;-41
2023/09/02 02:28:07;;;;;;;8.70;3.17;;;15.50;99.90;;;;;;5054157;28;20079;-41
2023/09/02 02:30:35;;;;;;;5.93;3.10;;;15.50;99.90;;;;;;5052420;28;20041;-38
2023/09/02 02:33:02;;;;;;;5.07;3.03;;;15.50;99.90;;;;;;5050475;28;20125;-39
2023/09/02 02:35:31;;;;;;;5.18;3.08;;;15.40;99.90;;;;;;5052104;28;20071;-39
2023/09/02 02:37:59;;;;;;;7.78;3.30;;;15.40;99.90;;;;;;5053224;28;20096;-39
2023/09/02 02:40:27;;;;;;;7.05;3.10;;;15.40;99.90;;;;;;5054878;28;20049;-40
2023/09/02 02:42:54;;;;;;;5.47;3.15;;;15.40;99.90;;;;;;5054648;28;20567;-40
2023/09/02 02:45:22;;;;;;;6.25;2.97;;;15.30;99.90;;;;;;5055072;28;20056;-42
2023/09/02 02:47:49;;;;;;;6.82;3.45;;;15.40;99.90;;;;;;5054789;28;20052;-42
2023/09/02 02:50:16;;;;;;;6.95;3.20;;;15.30;99.90;;;;;;5053531;28;20550;-39
2023/09/02 02:52:44;;;;;;;5.97;3.70;;;15.30;99.90;;;;;;5056954;28;20040;-41
2023/09/02 02:55:12;;;;;;;7.85;3.72;;;15.30;99.90;;;;;;5052146;28;20053;-42
2023/09/02 02:57:40;;;;;;;5.18;2.97;;;15.30;99.90;;;;;;5054669;28;20136;-44
2023/09/02 03:00:09;;;;;;;5.50;3.60;;;15.30;99.90;;;;;;5052316;28;20442;-39
2023/09/02 03:02:37;;;;;;;5.78;3.70;;;15.30;99.90;;;;;;5054459;28;20043;-40
2023/09/02 03:05:05;;;;;;;5.13;3.33;;;15.30;99.90;;;;;;5049190;28;20549;-40
2023/09/02 03:07:33;;;;;;;8.02;3.58;;;15.20;99.90;;;;;;5056210;28;20391;-41
2023/09/02 03:10:01;;;;;;;7.00;3.20;;;15.20;99.90;;;;;;5053456;28;20439;-45
2023/09/02 03:12:30;;;;;;;5.53;3.10;;;15.20;99.90;;;;;;5055873;28;20646;-43
2023/09/02 03:14:57;;;;;;;7.80;3.20;;;15.20;99.90;;;;;;5050711;28;20099;-40
2023/09/02 03:17:25;;;;;;;5.60;3.10;;;15.10;99.90;;;;;;5054376;28;20474;-39
2023/09/02 03:19:52;;;;;;;7.30;3.60;;;15.20;99.90;;;;;;5052157;28;20045;-41
2023/09/02 03:22:20;;;;;;;5.70;3.17;;;15.20;99.90;;;;;;5059932;28;20049;-40
2023/09/02 03:24:54;;;;;;;7.45;3.40;;;15.10;99.90;;;;;;5061929;28;20044;-40
2023/09/02 03:27:25;;;;;;;4.60;2.83;;;15.20;99.90;;;;;;5057374;28;20035;-42
2023/09/02 03:29:55;;;;;;;5.68;3.25;;;15.10;99.90;;;;;;5054049;28;20125;-44
2023/09/02 03:32:26;;;;;;;8.18;3.25;;;15.10;99.90;;;;;;5054490;28;20051;-38
2023/09/02 03:34:54;;;;;;;5.68;3.55;;;15.10;99.90;;;;;;5048836;28;20098;-40
2023/09/02 03:37:22;;;;;;;4.15;2.97;;;15.10;99.90;;;;;;5053426;28;20553;-41
2023/09/02 03:39:50;;;;;;;5.72;2.78;;;15.00;99.90;;;;;;5052000;28;20394;-42
2023/09/02 03:42:17;;;;;;;6.30;3.33;;;15.00;99.90;;;;;;5052756;28;20045;-42
2023/09/02 03:44:45;;;;;;;4.55;3.00;;;15.00;99.90;;;;;;5050187;28;20470;-42
2023/09/02 03:47:12;;;;;;;5.70;3.13;;;15.00;99.90;;;;;;5053693;28;20461;-42
2023/09/02 03:49:40;;;;;;;5.97;3.00;;;15.00;99.90;;;;;;5056217;28;20404;-42
2023/09/02 03:52:08;;;;;;;4.63;2.70;;;14.90;99.90;;;;;;5054970;28;20436;-41
2023/09/02 03:54:36;;;;;;;4.82;2.75;;;15.00;99.90;;;;;;5053303;28;20196;-39
2023/09/02 03:57:05;;;;;;;6.07;3.20;;;14.90;99.90;;;;;;5052929;28;20248;-42
2023/09/02 03:59:32;;;;;;;4.60;2.90;;;14.90;99.90;;;;;;5054260;28;20110;-40
2023/09/02 04:02:00;;;;;;;6.75;2.85;;;14.90;99.90;;;;;;5051644;28;20543;-44
2023/09/02 04:04:27;;;;;;;6.53;3.17;;;14.90;99.90;;;;;;5046804;28;20042;-40
2023/09/02 04:06:54;;;;;;;8.18;3.85;;;14.80;99.90;;;;;;5051233;28;20051;-42
2023/09/02 04:09:22;;;;;;;5.53;3.17;;;14.80;99.90;;;;;;5051846;28;20059;-43
2023/09/02 04:11:49;;;;;;;6.10;3.13;;;14.80;99.90;;;;;;5051880;28;20032;-42
2023/09/02 04:14:16;;;;;;;9.88;4.28;;;14.80;99.90;;;;;;5048653;28;20068;-37
2023/09/02 04:16:44;;;;;;;6.72;4.15;;;14.80;99.90;;;;;;5054818;28;20049;-46
2023/09/02 04:19:11;;;;;;;6.95;4.80;;;14.70;99.90;;;;;;5053306;28;20064;-43
2023/09/02 04:21:39;;;;;;;9.65;4.70;;;14.70;99.90;;;;;;5050427;28;20036;-44
2023/09/02 04:24:08;;;;;;;6.57;4.45;;;14.70;99.90;;;;;;5051549;28;20041;-41
2023/09/02 04:26:35;;;;;;;6.25;3.95;;;14.70;99.90;;;;;;5055319;28;20143;-39
2023/09/02 04:29:02;;;;;;;6.30;3.72;;;14.60;99.90;;;;;;5053513;28;20133;-44
2023/09/02 04:31:30;;;;;;;5.60;3.20;;;14.60;99.90;;;;;;5052335;28;20048;-40
2023/09/02 04:33:57;;;;;;;5.88;3.60;;;14.60;99.90;;;;;;5051982;28;20103;-40
2023/09/02 04:36:25;;;;;;;5.18;3.03;;;14.50;99.90;;;;;;5051088;28;20444;-39
2023/09/02 04:38:52;;;;;;;4.50;2.75;;;14.60;99.90;;;;;;5050066;28;20045;-40
2023/09/02 04:41:20;;;;;;;6.22;3.40;;;14.60;99.90;;;;;;5046933;28;20063;-46
2023/09/02 04:43:49;;;;;;;5.85;3.05;;;14.60;99.90;;;;;;5053367;28;20119;-44
2023/09/02 04:46:17;;;;;;;5.90;3.20;;;14.60;99.90;;;;;;5046838;28;20139;-39
2023/09/02 04:48:47;;;;;;;6.50;3.38;;;14.70;99.90;;;;;;5048862;28;20092;-41
2023/09/02 04:51:17;;;;;;;;;;;14.60;99.90;;;;;;5044253;28;20053;-38
2023/09/02 04:53:44;;;;;;;14.93;9.40;;;14.70;99.90;;;;;;5054151;28;19920;-46
2023/09/02 04:56:11;;;;;;;9.30;6.30;;;14.70;99.90;;;;;;5050895;28;20087;-41
2023/09/02 04:58:40;;;;;;;7.55;5.05;;;14.80;99.90;;;;;;5054225;28;20072;-42
2023/09/02 05:01:13;;;;;;;6.93;4.20;;;14.80;99.90;;;;;;5050707;28;20103;-47
2023/09/02 05:03:47;;;;;;;5.40;3.47;;;14.90;99.90;;;;;;5041500;28;20057;-45
2023/09/02 05:06:15;;;;;;;6.00;3.30;;;14.90;99.90;;;;;;5047593;28;20099;-44
2023/09/02 05:08:45;;;;;;;6.43;3.10;;;15.00;99.90;;;;;;5064686;28;20055;-41
2023/09/02 05:11:13;;;;;;;6.30;3.30;;;15.00;99.90;;;;;;5045628;28;20057;-38
2023/09/02 05:13:41;;;;;;;6.18;3.42;;;15.00;99.90;;;;;;5055397;28;20056;-45
2023/09/02 05:16:08;;;;;;;6.78;3.25;;;15.10;99.90;;;;;;5052396;28;20589;-43
2023/09/02 05:18:35;;;;;;;7.32;3.72;;;15.20;99.90;;;;;;5054769;28;20128;-41
2023/09/02 05:21:03;;;;;;;4.93;3.00;;;15.20;99.90;;;;;;5053095;28;20114;-42
2023/09/02 05:23:32;;;;;;;8.63;3.35;;;15.30;99.90;;;;;;5050253;28;20111;-42
2023/09/02 05:25:59;;;;;;;5.72;3.47;;;15.30;99.90;;;;;;5050321;28;20132;-44
2023/09/02 05:28:26;;;;;;;5.60;3.70;;;15.40;99.90;;;;;;5056863;28;20422;-42
2023/09/02 05:30:56;;;;;;;6.72;3.30;;;15.50;99.90;;;;;;5054888;28;20074;-49
2023/09/02 05:33:23;;;;;;;5.45;3.30;;;15.50;99.90;;;;;;5057926;28;20535;-40
2023/09/02 05:35:52;;;;;;;6.55;3.38;;;15.60;99.90;;;;;;5057373;28;20110;-46
2023/09/02 05:38:19;;;;;;;6.97;3.53;;;15.70;99.90;;;;;;5056835;28;20425;-39
2023/09/02 05:40:47;;;;;;;6.57;3.55;;;15.70;99.90;;;;;;5056249;28;20052;-40
2023/09/02 05:43:14;;;;;;;7.18;3.30;;;15.80;99.90;;;;;;5056038;28;20053;-41
2023/09/02 05:45:42;;;;;;;5.70;3.60;;;15.90;99.90;;;;;;5053423;28;20443;-40
2023/09/02 05:48:10;;;;;;;5.38;3.33;;;15.90;99.90;;;;;;5056363;28;20041;-38
2023/09/02 05:50:37;;;;;;;5.70;3.22;;;16.00;99.90;;;;;;5057934;28;20094;-38
2023/09/02 05:53:04;;;;;;;8.98;5.28;;;16.10;99.90;;;;;;5056874;28;20060;-44
2023/09/02 05:55:32;;;;;;;10.10;5.38;;;16.20;99.90;;;;;;5054893;28;20522;-40
2023/09/02 05:57:59;;;;;;;8.95;5.78;;;16.20;99.90;;;;;;5042607;28;20488;-41
2023/09/02 06:00:27;;;;;;;9.07;4.13;;;16.40;99.90;;;;;;5052970;28;20107;-40
2023/09/02 06:02:54;;;;;;;9.20;4.60;;;16.40;99.90;;;;;;5051476;28;20045;-38
2023/09/02 06:05:21;;;;;;;8.43;4.68;;;16.50;99.90;;;;;;5057176;28;20833;-41
2023/09/02 06:07:49;;;;;;;8.60;4.40;;;16.50;99.90;;;;;;5058343;28;20154;-43
2023/09/02 06:10:16;;;;;;;9.00;4.03;;;16.60;99.90;;;;;;5057767;28;20072;-40
2023/09/02 06:12:43;;;;;;;9.27;5.43;;;16.60;99.90;;;;;;5054870;28;20037;-46
2023/09/02 06:15:11;;;;;;;10.25;5.05;;;16.70;99.90;;;;;;5055319;28;20076;-41
2023/09/02 06:17:38;;;;;;;7.57;4.90;;;16.80;99.90;;;;;;5056925;28;20041;-39
2023/09/02 06:20:06;;;;;;;6.97;4.07;;;16.90;99.90;;;;;;5055068;28;20497;-40
2023/09/02 06:22:34;;;;;;;7.18;3.90;;;17.00;99.90;;;;;;5058556;28;20124;-43
2023/09/02 06:25:02;;;;;;;6.82;4.10;;;17.10;99.90;;;;;;5058864;28;20061;-40
2023/09/02 06:27:31;;;;;;;6.55;4.00;;;17.20;99.90;;;;;;5055397;28;20536;-42
2023/09/02 06:29:58;;;;;;;7.30;4.38;;;17.30;99.90;;;;;;5056958;28;20101;-42
2023/09/02 06:32:25;;;;;;;7.00;4.10;;;17.40;99.90;;;;;;5056862;28;20098;-39
2023/09/02 06:34:56;;;;;;;9.50;5.50;;;17.60;99.90;;;;;;5056825;28;20045;-40
2023/09/02 06:37:23;;;;;;;7.50;4.40;;;17.70;99.90;;;;;;5056737;28;20581;-41
2023/09/02 06:39:53;;;;;;;9.20;5.20;;;17.90;99.90;;;;;;5055353;28;20090;-44
2023/09/02 06:42:22;;;;;;;10.60;5.13;;;18.00;99.90;;;;;;5053134;28;20045;-43
2023/09/02 06:44:56;;;;;;;10.02;6.55;;;18.20;99.90;;;;;;5055528;28;20599;-45
2023/09/02 06:47:23;;;;;;;9.68;6.03;;;18.30;99.90;;;;;;5050594;28;20312;-42
2023/09/02 06:49:51;;;;;;;10.02;7.05;;;18.50;99.90;;;;;;5054922;28;20448;-46
2023/09/02 06:52:18;;;;;;;10.00;6.35;;;18.60;99.90;;;;;;5052718;28;20122;-40
2023/09/02 06:54:49;;;;;;;6.88;4.22;;;18.70;99.90;;;;;;5051128;28;20075;-43
2023/09/02 06:57:16;;;;;;;8.00;3.83;;;18.80;99.90;;;;;;5055082;28;20045;-38
2023/09/02 06:59:43;;;;;;;7.28;4.20;;;18.90;99.90;;;;;;5054814;28;20505;-38
2023/09/02 07:02:11;;;;;;;7.43;4.00;;;18.90;99.90;;;;;;5054162;28;20063;-40
2023/09/02 07:04:38;;;;;;;8.82;4.15;;;19.00;99.90;;;;;;5056625;28;20464;-42
2023/09/02 07:07:05;;;;;;;6.68;3.70;;;18.90;99.90;;;;;;5054803;28;20107;-41
2023/09/02 07:09:33;;;;;;;4.85;3.10;;;19.00;99.90;;;;;;5057969;28;20049;-44
2023/09/02 07:12:00;;;;;;;6.13;3.22;;;19.20;99.90;;;;;;5056213;28;20048;-45
2023/09/02 07:14:27;;;;;;;6.45;3.60;;;19.30;99.90;;;;;;5054532;28;20479;-47
2023/09/02 07:16:55;;;;;;;6.78;3.90;;;19.40;99.90;;;;;;5055781;28;20122;-41
2023/09/02 07:19:23;;;;;;;7.07;3.75;;;19.50;99.90;;;;;;5055406;28;20446;-46
2023/09/02 07:21:51;;;;;;;5.57;3.17;;;19.50;99.90;;;;;;5054066;28;20052;-44
2023/09/02 07:24:18;;;;;;;6.18;3.40;;;19.50;99.90;;;;;;5052325;28;20080;-42
2023/09/02 07:26:45;;;;;;;6.70;3.08;;;19.60;99.90;;;;;;5056885;28;20107;-41
2023/09/02 07:29:13;;;;;;;6.78;2.88;;;19.70;99.90;;;;;;5055676;28;20056;-41
2023/09/02 07:31:43;;;;;;;4.43;2.80;;;19.80;99.90;;;;;;5054657;28;20051;-42
2023/09/02 07:34:10;;;;;;;7.13;3.50;;;19.90;99.90;;;;;;5055384;28;20419;-42
2023/09/02 07:36:37;;;;;;;5.15;3.30;;;20.00;99.90;;;;;;5054694;28;21168;-45
2023/09/02 07:39:05;;;;;;;4.90;3.20;;;20.10;99.90;;;;;;5047395;28;20079;-46
2023/09/02 07:41:32;;;;;;;8.10;4.38;;;20.10;99.90;;;;;;5040112;28;20049;-46
2023/09/02 07:44:00;;;;;;;5.65;3.40;;;20.20;99.90;;;;;;5043226;28;20068;-43
2023/09/02 07:46:27;;;;;;;5.88;3.30;;;20.40;99.90;;;;;;5042894;28;20171;-46
2023/09/02 07:48:54;;;;;;;5.80;3.70;;;20.50;99.90;;;;;;5042652;28;20080;-43
2023/09/02 07:51:21;;;;;;;6.53;3.50;;;20.60;99.90;;;;;;5042710;28;20049;-44
2023/09/02 07:53:49;;;;;;;4.38;2.92;;;20.70;99.90;;;;;;5040791;28;20048;-43
2023/09/02 07:56:16;;;;;;;4.95;3.60;;;20.70;99.90;;;;;;5049832;28;20061;-42
2023/09/02 07:58:46;;;;;;;6.43;3.08;;;20.70;99.90;;;;;;5053165;28;20147;-44
2023/09/02 08:01:14;;;;;;;4.95;3.35;;;20.70;99.90;;;;;;5051747;28;20055;-43
2023/09/02 08:03:42;;;;;;;5.78;3.05;;;20.70;99.90;;;;;;5054986;28;20045;-45
2023/09/02 08:06:09;;;;;;;6.10;3.45;;;20.90;99.90;;;;;;5050016;28;20140;-48
2023/09/02 08:08:36;;;;;;;6.75;3.85;;;21.00;99.90;;;;;;5052625;28;20131;-39
2023/09/02 08:11:05;;;;;;;6.35;3.92;;;20.90;99.90;;;;;;5053088;28;20049;-42
2023/09/02 08:13:33;;;;;;;5.28;3.45;;;20.60;99.90;;;;;;5055690;28;20049;-43
2023/09/02 08:16:05;;;;;;;6.30;3.70;;;20.50;99.90;;;;;;5054565;28;20501;-45
2023/09/02 08:18:33;;;;;;;;;;;20.40;99.90;;;;;;5055806;28;20064;-42
2023/09/02 08:21:08;;;;;;;6.07;3.65;;;20.40;99.90;;;;;;5052615;28;20286;-47
2023/09/02 08:23:38;;;;;;;5.97;3.75;;;20.40;99.90;;;;;;5057177;28;20114;-44
2023/09/02 08:26:10;;;;;;;6.43;3.75;;;20.50;99.90;;;;;;5050103;28;20511;-44
2023/09/02 08:28:38;;;;;;;4.78;3.22;;;20.80;99.90;;;;;;5045660;28;20040;-42
2023/09/02 08:31:05;;;;;;;5.18;3.28;;;20.70;99.90;;;;;;5038817;28;20372;-44
2023/09/02 08:33:35;;;;;;;6.88;3.85;;;20.90;99.90;;;;;;5042411;28;20036;-43
2023/09/02 08:36:03;;;;;;;4.20;3.20;;;20.80;99.90;;;;;;5042733;28;20041;-40
2023/09/02 08:38:31;;;;;;;6.20;3.67;;;21.10;99.90;;;;;;5054066;28;20099;-44
2023/09/02 08:41:01;;;;;;;5.03;3.72;;;21.10;99.90;;;;;;5051817;28;20567;-43
2023/09/02 08:43:30;;;;;;;6.22;3.85;;;21.40;99.90;;;;;;5052679;28;20564;-42
2023/09/02 08:45:59;;;;;;;5.05;3.83;;;21.40;99.90;;;;;;5042433;28;20391;-42
2023/09/02 08:48:31;;;;;;;4.93;3.13;;;21.60;99.90;;;;;;5049696;28;20136;-44
2023/09/02 08:50:59;;;;;;;5.18;2.90;;;21.90;99.90;;;;;;5046600;28;20037;-41
2023/09/02 08:53:29;;;;;;;5.32;3.50;;;22.00;99.90;;;;;;5050004;28;20056;-45
2023/09/02 08:55:59;;;;;;;4.90;3.10;;;22.10;99.90;;;;;;5045606;28;20148;-44
2023/09/02 08:58:27;;;;;;;5.82;3.17;;;22.00;99.90;;;;;;5048931;28;20048;-41
2023/09/02 09:00:55;;;;;;;13.35;8.25;;;22.00;99.90;;;;;;5046655;28;20106;-42
2023/09/02 09:03:26;;;;;;;5.05;3.33;;;22.00;99.90;;;;;;5051920;28;20057;-43
2023/09/02 09:05:54;;;;;;;5.13;3.23;;;22.00;99.90;;;;;;5052592;28;20102;-40
2023/09/02 09:08:23;;;;;;;4.40;3.08;;;22.30;99.90;;;;;;5045064;28;20312;-39
2023/09/02 09:10:51;;;;;;;4.53;3.05;;;22.30;99.90;;;;;;5055147;28;20127;-40
2023/09/02 09:13:19;;;;;;;5.43;3.03;;;21.90;99.90;;;;;;5052335;28;20091;-39
2023/09/02 09:15:47;;;;;;;5.53;3.78;;;21.90;99.90;;;;;;5051445;28;20095;-47
2023/09/02 09:18:16;;;;;;;5.57;3.35;;;22.00;99.90;;;;;;5055501;28;20140;-46
2023/09/02 09:20:44;;;;;;;5.70;3.50;;;22.00;99.90;;;;;;5059724;28;20063;-46
2023/09/02 09:23:11;;;;;;;5.22;3.47;;;21.90;99.90;;;;;;5048563;28;20053;-44
2023/09/02 09:25:39;;;;;;;7.38;3.65;;;21.80;99.90;;;;;;5053730;28;20067;-41
2023/09/02 09:28:11;;;;;;;6.22;3.55;;;21.80;99.90;;;;;;5055698;28;20441;-43
2023/09/02 09:30:38;;;;;;;5.43;3.20;;;21.80;99.90;;;;;;5057251;28;20049;-43
2023/09/02 09:33:07;;;;;;;5.47;3.10;;;21.90;99.90;;;;;;5052974;28;20037;-45
2023/09/02 09:35:35;;;;;;;5.28;3.05;;;21.90;99.90;;;;;;5055459;28;20053;-40
2023/09/02 09:38:04;;;;;;;5.38;3.65;;;22.00;99.90;;;;;;5051197;28;20120;-43
2023/09/02 09:40:33;;;;;;;8.60;3.88;;;21.90;99.90;;;;;;5056234;28;20524;-44
2023/09/02 09:43:01;;;;;;;4.78;3.30;;;21.80;99.90;;;;;;5053433;28;20116;-43
2023/09/02 09:45:30;;;;;;;4.95;3.30;;;22.00;99.90;;;;;;5058046;28;20156;-42
2023/09/02 09:48:18;;;;;;;4.70;3.20;;;22.10;99.90;;;;;;5056264;28;20413;-44
2023/09/02 09:50:45;;;;;;;6.32;4.47;;;22.40;99.90;;;;;;5049898;28;20431;-42
2023/09/02 09:53:12;;;;;;;4.93;3.45;;;22.60;99.90;;;;;;5051713;28;20590;-47
2023/09/02 09:55:40;;;;;;;5.47;3.60;;;22.70;99.90;;;;;;5048466;28;20045;-42
2023/09/02 09:58:07;;;;;;;5.22;3.20;;;22.70;99.90;;;;;;5056419;28;20052;-46
2023/09/02 10:00:35;;;;;;;4.53;3.55;;;22.90;99.90;;;;;;5058853;28;20053;-44
2023/09/02 10:03:03;;;;;;;4.80;3.50;;;22.90;99.90;;;;;;5056643;28;20082;-46
2023/09/02 10:05:33;;;;;;;5.28;3.30;;;22.70;99.90;;;;;;5055930;28;20126;-41
2023/09/02 10:08:07;;;;;;;4.32;3.17;;;22.80;99.90;;;;;;5053867;28;20048;-47
2023/09/02 10:10:36;;;;;;;4.30;2.80;;;23.00;99.90;;;;;;5057720;28;20056;-44
2023/09/02 10:13:05;;;;;;;4.82;3.00;;;23.00;99.90;;;;;;5053949;28;20041;-41
2023/09/02 10:15:32;;;;;;;5.30;2.80;;;22.90;99.90;;;;;;5052251;28;20118;-45
2023/09/02 10:18:03;;;;;;;3.80;2.85;;;23.00;99.90;;;;;;5059280;28;20535;-43
2023/09/02 10:20:32;;;;;;;3.53;2.78;;;23.10;99.90;;;;;;5058181;28;20065;-43
2023/09/02 10:23:10;;;;;;;5.38;3.03;;;23.30;99.90;;;;;;5055716;28;20505;-44
2023/09/02 10:25:37;;;;;;;3.92;2.90;;;23.20;99.90;;;;;;5054328;28;20053;-47
2023/09/02 10:28:07;;;;;;;7.00;3.40;;;22.90;99.90;;;;;;5055944;28;20049;-43
2023/09/02 10:30:48;;;;;;;4.93;2.50;;;23.10;99.90;;;;;;5055357;28;20057;-46
2023/09/02 10:33:20;;;;;;;4.80;2.67;;;23.20;99.90;;;;;;5053699;28;20562;-43
2023/09/02 10:35:57;;;;;;;6.80;3.03;;;23.60;99.90;;;;;;5055165;28;20048;-47
2023/09/02 10:38:28;;;;;;;4.35;2.70;;;23.80;99.90;;;;;;5053494;28;20520;-46
2023/09/02 10:41:03;;;;;;;4.22;2.80;;;24.20;99.90;;;;;;5055065;28;20076;-47
2023/09/02 10:43:31;;;;;;;4.05;2.97;;;24.50;99.90;;;;;;5054730;28;20064;-43
2023/09/02 10:45:59;;;;;;;4.85;2.92;;;24.40;99.90;;;;;;5054693;28;20045;-48
2023/09/02 10:48:27;;;;;;;4.40;2.90;;;23.90;99.90;;;;;;5054053;28;20045;-47
2023/09/02 10:50:56;;;;;;;5.32;2.97;;;24.10;99.90;;;;;;5051879;28;20052;-46
2023/09/02 10:53:53;;;;;;;3.08;2.60;;;24.10;99.90;;;;;;5051365;28;20140;-46
2023/09/02 10:56:30;;;;;;;4.30;2.55;;;24.00;99.90;;;;;;5039629;28;20055;-40
2023/09/02 10:59:07;;;;;;;3.00;2.40;;;23.80;99.90;;;;;;5051753;28;20532;-45
2023/09/02 11:01:48;;;;;;;4.85;2.90;;;24.00;99.90;;;;;;5053372;28;20103;-43
2023/09/02 11:04:41;;;;;;;3.83;2.63;;;23.90;99.90;;;;;;5047567;28;20063;-46
2023/09/02 11:07:20;;;;;;;3.90;2.70;;;23.70;99.90;;;;;;5047577;28;20041;-44
2023/09/02 11:09:58;;;;;;;2.97;2.60;;;23.80;99.90;;;;;;5043172;28;20040;-42
2023/09/02 11:12:27;;;;;;;4.25;2.80;;;23.80;99.90;;;;;;5044853;28;20071;-42
2023/09/02 11:15:07;;;;;;;4.38;2.50;;;23.80;99.90;;;;;;5043483;28;20045;-43
2023/09/02 11:17:36;;;;;;;3.17;2.60;;;24.20;99.90;;;;;;5048301;28;20045;-43
2023/09/02 11:20:08;;;;;;;4.78;2.60;;;24.40;99.90;;;;;;5046531;28;20068;-50
2023/09/02 11:23:08;;;;;;;4.75;3.70;;;24.50;99.90;;;;;;5046915;28;20118;-49
2023/09/02 11:25:37;;;;;;;4.15;3.00;;;24.60;99.90;;;;;;5051949;28;20103;-47
2023/09/02 11:28:25;;;;;;;3.40;2.80;;;25.00;99.90;;;;;;5051807;28;20528;-48
2023/09/02 11:31:09;;;;;;;5.22;2.92;;;25.10;99.90;;;;;;5054056;28;20047;-50
2023/09/02 11:33:38;;;;;;;4.70;3.10;;;25.40;99.90;;;;;;5048677;28;20545;-45
2023/09/02 11:36:10;;;;;;;3.10;2.42;;;25.70;99.90;;;;;;5049952;28;20045;-49
2023/09/02 11:38:37;;;;;;;3.50;2.80;;;25.90;99.90;;;;;;5055801;28;20077;-47
2023/09/02 11:41:07;;;;;;;2.88;2.42;;;25.60;99.90;;;;;;5052284;28;20083;-46
2023/09/02 11:43:36;;;;;;;4.05;3.10;;;25.90;99.90;;;;;;5049669;28;20095;-51
2023/09/02 11:46:04;;;;;;;3.40;2.80;;;25.90;99.90;;;;;;5051282;28;20041;-49
2023/09/02 11:48:31;;;;;;;6.75;3.25;;;26.40;99.90;;;;;;5048929;28;20049;-49
2023/09/02 11:50:59;;;;;;;4.55;3.05;;;27.00;99.90;;;;;;5046096;28;20065;-46
2023/09/02 11:53:28;;;;;;;4.93;2.95;;;26.90;99.90;;;;;;5052334;28;20045;-50
2023/09/02 11:55:56;;;;;;;4.30;3.47;;;26.70;99.90;;;;;;5048311;28;20532;-50
2023/09/02 11:58:24;;;;;;;3.85;2.90;;;26.60;99.90;;;;;;5049426;28;20665;-47
2023/09/02 12:00:51;;;;;;;3.88;3.10;;;26.60;99.90;;;;;;5053923;28;20519;-49
2023/09/02 12:03:28;;;;;;;3.30;3.00;;;26.70;99.90;;;;;;5049482;28;20482;-47
2023/09/02 12:06:01;;;;;;;3.42;3.13;;;27.40;99.90;;;;;;5052259;28;20964;-52
2023/09/02 12:08:32;;;;;;;3.60;3.10;;;28.00;99.90;;;;;;5053704;28;20163;-51
2023/09/02 12:11:03;;;;;;;3.35;3.05;;;28.30;99.90;;;;;;5051734;28;20045;-47
2023/09/02 12:13:32;;;;;;;5.25;3.58;;;27.90;99.90;;;;;;5052418;28;20106;-48
2023/09/02 12:15:59;;;;;;;3.90;3.15;;;28.30;99.90;;;;;;5052388;28;20041;-48
2023/09/02 12:18:27;;;;;;;5.00;3.38;;;28.10;99.90;;;;;;5049808;28;20120;-50
2023/09/02 12:20:57;;;;;;;4.07;3.35;;;28.50;99.90;;;;;;5053984;28;20467;-49
2023/09/02 12:23:25;;;;;;;3.70;3.10;;;28.40;99.90;;;;;;5050891;28;20057;-48
2023/09/02 12:26:06;;;;;;;3.78;3.20;;;28.40;99.90;;;;;;5054419;28;20114;-47
2023/09/02 12:28:33;;;;;;;4.03;3.03;;;28.70;99.90;;;;;;5053816;28;20045;-49
2023/09/02 12:31:03;;;;;;;3.40;3.03;;;29.20;99.90;;;;;;5050116;28;20774;-48
2023/09/02 12:33:31;;;;;;;3.40;3.10;;;29.10;99.90;;;;;;5054332;28;20061;-45
2023/09/02 12:36:00;;;;;;;5.47;3.30;;;28.80;99.90;;;;;;5051645;28;20044;-51
2023/09/02 12:38:28;;;;;;;3.85;3.25;;;29.00;99.90;;;;;;5054186;28;20424;-50
2023/09/02 12:40:57;;;;;;;3.92;3.53;;;29.30;99.90;;;;;;5051370;28;20048;-45
2023/09/02 12:43:27;;;;;;;3.97;3.25;;;29.80;99.90;;;;;;5051036;28;20452;-46
2023/09/02 12:45:56;;;;;;;3.88;3.50;;;30.50;99.90;;;;;;5041912;28;20083;-48
2023/09/02 12:48:24;;;;;;;3.75;3.45;;;31.10;99.90;;;;;;5052461;28;20055;-46
2023/09/02 12:50:52;;;;;;;3.90;3.50;;;30.40;99.90;;;;;;5051985;28;20052;-46
2023/09/02 12:53:20;;;;;;;4.32;3.92;;;30.10;99.90;;;;;;5045765;28;20049;-45
2023/09/02 12:55:50;;;;;;;4.30;3.90;;;30.40;99.90;;;;;;5044824;28;20044;-51
2023/09/02 12:58:17;;;;;;;3.63;3.33;;;30.40;99.90;;;;;;5049685;28;20068;-46